Spring Branch, Texas
Current Conditions -  °F | °C
As of 11:35 AM on Thursday 23 Oct 2014 (Local Time) from K5C1 Reporting Station
Clear Clear  
Wind Chill: 75°   Ceiling: Unl
Heat Index: 75°   Visibility: 10mi
Dew Point: 61°   Wind: 3mph
Humidity: 61%   Direction: 220°SW
Pressure: 30.19"   Gusts: NA
Location:  29.89°N, 98.43°W
Report Text: K5C1 231635Z AUTO 22003KT 10SM CLR 24/16 A3019 RMK AO1
Loading
Personal Weather Stations






























Interactive Weather Map
Tropical Storm Tracking
New forecast layout! Learn more

10-Day Weather Forecast

Advertisements
Track Severe Weather on mobile